sensor_id;sensor_type;location;lat;lon;timestamp;P1;durP1;ratioP1;P2;durP2;ratioP2
70967;SDS011;58629;48.808;8.820;2022-08-01T00:01:01;1.27;;;1.10;;
70967;SDS011;58629;48.808;8.820;2022-08-01T00:03:26;1.20;;;1.10;;
70967;SDS011;58629;48.808;8.820;2022-08-01T00:05:52;2.00;;;1.80;;
70967;SDS011;58629;48.808;8.820;2022-08-01T00:08:17;1.60;;;1.50;;
70967;SDS011;58629;48.808;8.820;2022-08-01T00:10:42;2.13;;;1.73;;
70967;SDS011;58629;48.808;8.820;2022-08-01T00:13:07;1.70;;;1.60;;
70967;SDS011;58629;48.808;8.820;2022-08-01T00:15:33;1.70;;;1.57;;
70967;SDS011;58629;48.808;8.820;2022-08-01T00:17:58;1.70;;;1.40;;
70967;SDS011;58629;48.808;8.820;2022-08-01T00:20:24;2.87;;;1.60;;
70967;SDS011;58629;48.808;8.820;2022-08-01T00:22:49;2.13;;;1.80;;
70967;SDS011;58629;48.808;8.820;2022-08-01T00:25:14;2.00;;;1.80;;
70967;SDS011;58629;48.808;8.820;2022-08-01T00:27:40;2.10;;;1.57;;
70967;SDS011;58629;48.808;8.820;2022-08-01T00:30:05;1.80;;;1.60;;
70967;SDS011;58629;48.808;8.820;2022-08-01T00:32:31;1.40;;;1.30;;
70967;SDS011;58629;48.808;8.820;2022-08-01T00:34:56;1.58;;;1.48;;
70967;SDS011;58629;48.808;8.820;2022-08-01T00:37:22;1.40;;;1.30;;
70967;SDS011;58629;48.808;8.820;2022-08-01T00:39:47;1.27;;;1.17;;
70967;SDS011;58629;48.808;8.820;2022-08-01T00:42:12;1.40;;;1.20;;
70967;SDS011;58629;48.808;8.820;2022-08-01T00:44:39;1.38;;;1.27;;
70967;SDS011;58629;48.808;8.820;2022-08-01T00:47:05;2.00;;;1.80;;
70967;SDS011;58629;48.808;8.820;2022-08-01T00:49:30;2.20;;;1.90;;
70967;SDS011;58629;48.808;8.820;2022-08-01T00:51:56;1.90;;;1.60;;
70967;SDS011;58629;48.808;8.820;2022-08-01T00:54:23;1.50;;;1.40;;
70967;SDS011;58629;48.808;8.820;2022-08-01T00:56:50;1.55;;;1.40;;
70967;SDS011;58629;48.808;8.820;2022-08-01T00:59:17;2.03;;;1.50;;
70967;SDS011;58629;48.808;8.820;2022-08-01T01:01:42;1.35;;;1.23;;
70967;SDS011;58629;48.808;8.820;2022-08-01T01:04:07;1.30;;;1.20;;
70967;SDS011;58629;48.808;8.820;2022-08-01T01:09:32;1.13;;;1.02;;
70967;SDS011;58629;48.808;8.820;2022-08-01T01:15:03;2.08;;;1.88;;
70967;SDS011;58629;48.808;8.820;2022-08-01T01:18:14;1.90;;;1.70;;
70967;SDS011;58629;48.808;8.820;2022-08-01T01:20:37;3.03;;;2.13;;
70967;SDS011;58629;48.808;8.820;2022-08-01T01:25:40;2.40;;;2.20;;
70967;SDS011;58629;48.808;8.820;2022-08-01T01:28:27;2.95;;;2.65;;
70967;SDS011;58629;48.808;8.820;2022-08-01T01:30:59;3.80;;;2.70;;
70967;SDS011;58629;48.808;8.820;2022-08-01T01:33:26;2.50;;;2.30;;
70967;SDS011;58629;48.808;8.820;2022-08-01T01:35:58;3.30;;;2.67;;
70967;SDS011;58629;48.808;8.820;2022-08-01T01:38:29;2.90;;;2.50;;
70967;SDS011;58629;48.808;8.820;2022-08-01T01:40:58;2.72;;;2.30;;
70967;SDS011;58629;48.808;8.820;2022-08-01T01:43:27;2.83;;;2.50;;
70967;SDS011;58629;48.808;8.820;2022-08-01T01:45:54;4.27;;;2.50;;
70967;SDS011;58629;48.808;8.820;2022-08-01T01:48:20;2.58;;;2.10;;
70967;SDS011;58629;48.808;8.820;2022-08-01T01:50:47;3.72;;;2.60;;
70967;SDS011;58629;48.808;8.820;2022-08-01T01:53:15;4.10;;;2.70;;
70967;SDS011;58629;48.808;8.820;2022-08-01T01:55:44;3.13;;;2.60;;
70967;SDS011;58629;48.808;8.820;2022-08-01T01:58:11;3.57;;;2.57;;
70967;SDS011;58629;48.808;8.820;2022-08-01T02:00:38;2.90;;;2.60;;
70967;SDS011;58629;48.808;8.820;2022-08-01T02:03:05;2.75;;;2.30;;
70967;SDS011;58629;48.808;8.820;2022-08-01T02:05:32;2.90;;;2.40;;
70967;SDS011;58629;48.808;8.820;2022-08-01T02:08:00;2.88;;;2.60;;
70967;SDS011;58629;48.808;8.820;2022-08-01T02:10:27;3.08;;;2.58;;
70967;SDS011;58629;48.808;8.820;2022-08-01T02:12:54;2.17;;;1.98;;
70967;SDS011;58629;48.808;8.820;2022-08-01T02:15:22;3.05;;;2.15;;
70967;SDS011;58629;48.808;8.820;2022-08-01T02:17:49;2.78;;;2.30;;
70967;SDS011;58629;48.808;8.820;2022-08-01T02:20:16;2.30;;;1.90;;
70967;SDS011;58629;48.808;8.820;2022-08-01T02:22:49;3.37;;;2.60;;
70967;SDS011;58629;48.808;8.820;2022-08-01T02:25:31;2.33;;;2.10;;
70967;SDS011;58629;48.808;8.820;2022-08-01T02:28:06;2.60;;;2.10;;
70967;SDS011;58629;48.808;8.820;2022-08-01T02:30:35;2.72;;;2.20;;
70967;SDS011;58629;48.808;8.820;2022-08-01T02:33:12;3.08;;;2.67;;
70967;SDS011;58629;48.808;8.820;2022-08-01T02:35:41;2.97;;;2.57;;
70967;SDS011;58629;48.808;8.820;2022-08-01T02:38:11;3.50;;;2.80;;
70967;SDS011;58629;48.808;8.820;2022-08-01T02:40:39;3.15;;;2.40;;
70967;SDS011;58629;48.808;8.820;2022-08-01T02:43:08;2.60;;;2.25;;
70967;SDS011;58629;48.808;8.820;2022-08-01T02:45:35;2.40;;;1.95;;
70967;SDS011;58629;48.808;8.820;2022-08-01T02:48:06;1.93;;;1.70;;
70967;SDS011;58629;48.808;8.820;2022-08-01T02:50:35;2.50;;;1.90;;
70967;SDS011;58629;48.808;8.820;2022-08-01T02:53:01;1.70;;;1.60;;
70967;SDS011;58629;48.808;8.820;2022-08-01T02:55:28;2.75;;;1.60;;
70967;SDS011;58629;48.808;8.820;2022-08-01T02:57:57;2.28;;;2.08;;
70967;SDS011;58629;48.808;8.820;2022-08-01T03:00:25;3.45;;;2.30;;
70967;SDS011;58629;48.808;8.820;2022-08-01T03:02:52;2.63;;;2.25;;
70967;SDS011;58629;48.808;8.820;2022-08-01T03:05:20;2.72;;;2.20;;
70967;SDS011;58629;48.808;8.820;2022-08-01T03:07:46;2.10;;;1.90;;
70967;SDS011;58629;48.808;8.820;2022-08-01T03:10:12;2.47;;;1.80;;
70967;SDS011;58629;48.808;8.820;2022-08-01T03:12:39;1.33;;;1.23;;
70967;SDS011;58629;48.808;8.820;2022-08-01T03:15:06;1.30;;;1.20;;
70967;SDS011;58629;48.808;8.820;2022-08-01T03:17:33;1.30;;;1.20;;
70967;SDS011;58629;48.808;8.820;2022-08-01T03:20:01;1.30;;;1.20;;
70967;SDS011;58629;48.808;8.820;2022-08-01T03:22:29;1.23;;;1.13;;
70967;SDS011;58629;48.808;8.820;2022-08-01T03:24:56;1.40;;;1.20;;
70967;SDS011;58629;48.808;8.820;2022-08-01T03:27:24;1.20;;;1.10;;
70967;SDS011;58629;48.808;8.820;2022-08-01T03:29:50;1.67;;;1.45;;
70967;SDS011;58629;48.808;8.820;2022-08-01T03:32:17;2.17;;;1.70;;
70967;SDS011;58629;48.808;8.820;2022-08-01T03:34:44;1.80;;;1.63;;
70967;SDS011;58629;48.808;8.820;2022-08-01T03:40:08;2.30;;;1.88;;
70967;SDS011;58629;48.808;8.820;2022-08-01T03:42:37;2.13;;;1.50;;
70967;SDS011;58629;48.808;8.820;2022-08-01T03:45:07;1.40;;;1.30;;
70967;SDS011;58629;48.808;8.820;2022-08-01T03:47:35;1.33;;;1.23;;
70967;SDS011;58629;48.808;8.820;2022-08-01T03:50:05;1.40;;;1.30;;
70967;SDS011;58629;48.808;8.820;2022-08-01T03:52:33;1.20;;;1.10;;
70967;SDS011;58629;48.808;8.820;2022-08-01T03:55:03;1.50;;;1.40;;
70967;SDS011;58629;48.808;8.820;2022-08-01T03:57:34;1.60;;;1.50;;
70967;SDS011;58629;48.808;8.820;2022-08-01T04:00:00;1.30;;;1.20;;
70967;SDS011;58629;48.808;8.820;2022-08-01T04:02:26;1.67;;;1.20;;
70967;SDS011;58629;48.808;8.820;2022-08-01T04:04:52;1.17;;;1.08;;
70967;SDS011;58629;48.808;8.820;2022-08-01T04:07:24;1.20;;;1.10;;
70967;SDS011;58629;48.808;8.820;2022-08-01T04:09:51;1.20;;;1.10;;
70967;SDS011;58629;48.808;8.820;2022-08-01T04:12:17;1.20;;;1.10;;
70967;SDS011;58629;48.808;8.820;2022-08-01T04:14:43;1.20;;;1.10;;
70967;SDS011;58629;48.808;8.820;2022-08-01T04:17:09;1.35;;;1.13;;
70967;SDS011;58629;48.808;8.820;2022-08-01T04:19:35;1.20;;;1.10;;
70967;SDS011;58629;48.808;8.820;2022-08-01T04:22:00;1.10;;;1.00;;
70967;SDS011;58629;48.808;8.820;2022-08-01T04:24:27;1.45;;;0.90;;
70967;SDS011;58629;48.808;8.820;2022-08-01T04:26:55;1.13;;;1.02;;
70967;SDS011;58629;48.808;8.820;2022-08-01T04:29:21;1.00;;;0.90;;
70967;SDS011;58629;48.808;8.820;2022-08-01T04:31:49;0.98;;;0.93;;
70967;SDS011;58629;48.808;8.820;2022-08-01T04:34:17;1.40;;;1.30;;
70967;SDS011;58629;48.808;8.820;2022-08-01T04:36:47;1.58;;;1.40;;
70967;SDS011;58629;48.808;8.820;2022-08-01T04:39:13;1.20;;;1.10;;
70967;SDS011;58629;48.808;8.820;2022-08-01T04:41:40;1.30;;;1.07;;
70967;SDS011;58629;48.808;8.820;2022-08-01T04:44:06;1.30;;;1.20;;
70967;SDS011;58629;48.808;8.820;2022-08-01T04:46:32;1.77;;;1.67;;
70967;SDS011;58629;48.808;8.820;2022-08-01T04:48:59;2.53;;;2.17;;
70967;SDS011;58629;48.808;8.820;2022-08-01T04:51:25;2.22;;;2.03;;
70967;SDS011;58629;48.808;8.820;2022-08-01T04:53:51;2.43;;;1.83;;
70967;SDS011;58629;48.808;8.820;2022-08-01T04:56:16;1.90;;;1.77;;
70967;SDS011;58629;48.808;8.820;2022-08-01T04:58:42;1.55;;;1.45;;
70967;SDS011;58629;48.808;8.820;2022-08-01T05:01:09;1.67;;;1.47;;
70967;SDS011;58629;48.808;8.820;2022-08-01T05:03:35;1.48;;;1.30;;
70967;SDS011;58629;48.808;8.820;2022-08-01T05:06:01;1.30;;;1.20;;
70967;SDS011;58629;48.808;8.820;2022-08-01T05:08:26;1.40;;;1.30;;
70967;SDS011;58629;48.808;8.820;2022-08-01T05:10:52;1.43;;;1.30;;
70967;SDS011;58629;48.808;8.820;2022-08-01T05:13:17;2.97;;;2.10;;
70967;SDS011;58629;48.808;8.820;2022-08-01T05:15:43;2.30;;;2.10;;
70967;SDS011;58629;48.808;8.820;2022-08-01T05:18:08;2.47;;;1.97;;
70967;SDS011;58629;48.808;8.820;2022-08-01T05:20:34;3.92;;;2.33;;
70967;SDS011;58629;48.808;8.820;2022-08-01T05:22:59;2.50;;;2.03;;
70967;SDS011;58629;48.808;8.820;2022-08-01T05:25:25;3.30;;;2.33;;
70967;SDS011;58629;48.808;8.820;2022-08-01T05:27:50;2.10;;;1.90;;
70967;SDS011;58629;48.808;8.820;2022-08-01T05:30:15;2.10;;;1.90;;
70967;SDS011;58629;48.808;8.820;2022-08-01T05:32:41;1.93;;;1.70;;
70967;SDS011;58629;48.808;8.820;2022-08-01T05:35:07;1.92;;;1.48;;
70967;SDS011;58629;48.808;8.820;2022-08-01T05:37:33;1.60;;;1.50;;
70967;SDS011;58629;48.808;8.820;2022-08-01T05:39:58;1.20;;;1.10;;
70967;SDS011;58629;48.808;8.820;2022-08-01T05:42:23;1.90;;;1.40;;
70967;SDS011;58629;48.808;8.820;2022-08-01T05:44:49;1.70;;;1.60;;
70967;SDS011;58629;48.808;8.820;2022-08-01T05:47:15;2.78;;;2.10;;
70967;SDS011;58629;48.808;8.820;2022-08-01T05:49:41;3.00;;;2.03;;
70967;SDS011;58629;48.808;8.820;2022-08-01T05:52:06;2.27;;;2.00;;
70967;SDS011;58629;48.808;8.820;2022-08-01T05:54:32;2.20;;;2.00;;
70967;SDS011;58629;48.808;8.820;2022-08-01T05:56:57;2.23;;;1.90;;
70967;SDS011;58629;48.808;8.820;2022-08-01T05:59:26;2.45;;;1.90;;
70967;SDS011;58629;48.808;8.820;2022-08-01T06:01:52;1.83;;;1.67;;
70967;SDS011;58629;48.808;8.820;2022-08-01T06:04:17;1.70;;;1.60;;
70967;SDS011;58629;48.808;8.820;2022-08-01T06:06:42;2.20;;;1.88;;
70967;SDS011;58629;48.808;8.820;2022-08-01T06:09:08;1.70;;;1.60;;
70967;SDS011;58629;48.808;8.820;2022-08-01T06:11:33;1.60;;;1.50;;
70967;SDS011;58629;48.808;8.820;2022-08-01T06:13:58;1.50;;;1.40;;
70967;SDS011;58629;48.808;8.820;2022-08-01T06:16:23;1.83;;;1.40;;
70967;SDS011;58629;48.808;8.820;2022-08-01T06:18:49;1.93;;;1.73;;
70967;SDS011;58629;48.808;8.820;2022-08-01T06:21:14;1.93;;;1.73;;
70967;SDS011;58629;48.808;8.820;2022-08-01T06:23:40;1.87;;;1.50;;
70967;SDS011;58629;48.808;8.820;2022-08-01T06:26:07;1.60;;;1.50;;
70967;SDS011;58629;48.808;8.820;2022-08-01T06:28:32;2.00;;;1.80;;
70967;SDS011;58629;48.808;8.820;2022-08-01T06:30:57;2.27;;;1.67;;
70967;SDS011;58629;48.808;8.820;2022-08-01T06:33:24;1.80;;;1.70;;
70967;SDS011;58629;48.808;8.820;2022-08-01T06:35:49;2.00;;;1.80;;
70967;SDS011;58629;48.808;8.820;2022-08-01T06:38:14;1.50;;;1.40;;
70967;SDS011;58629;48.808;8.820;2022-08-01T06:40:40;1.60;;;1.50;;
70967;SDS011;58629;48.808;8.820;2022-08-01T06:43:05;1.50;;;1.40;;
70967;SDS011;58629;48.808;8.820;2022-08-01T06:45:30;2.00;;;1.53;;
70967;SDS011;58629;48.808;8.820;2022-08-01T06:47:55;1.60;;;1.50;;
70967;SDS011;58629;48.808;8.820;2022-08-01T06:50:21;1.70;;;1.60;;
70967;SDS011;58629;48.808;8.820;2022-08-01T06:52:46;1.97;;;1.47;;
70967;SDS011;58629;48.808;8.820;2022-08-01T06:55:11;1.70;;;1.60;;
70967;SDS011;58629;48.808;8.820;2022-08-01T06:57:44;2.23;;;1.73;;
70967;SDS011;58629;48.808;8.820;2022-08-01T07:00:11;1.85;;;1.75;;
70967;SDS011;58629;48.808;8.820;2022-08-01T07:02:38;2.33;;;1.60;;
70967;SDS011;58629;48.808;8.820;2022-08-01T07:05:03;1.60;;;1.50;;
70967;SDS011;58629;48.808;8.820;2022-08-01T07:07:29;1.60;;;1.50;;
70967;SDS011;58629;48.808;8.820;2022-08-01T07:09:55;2.00;;;1.50;;
70967;SDS011;58629;48.808;8.820;2022-08-01T07:12:21;1.30;;;1.20;;
70967;SDS011;58629;48.808;8.820;2022-08-01T07:14:46;1.67;;;1.50;;
70967;SDS011;58629;48.808;8.820;2022-08-01T07:17:11;1.83;;;1.60;;
70967;SDS011;58629;48.808;8.820;2022-08-01T07:19:37;2.47;;;1.63;;
70967;SDS011;58629;48.808;8.820;2022-08-01T07:22:02;3.53;;;1.80;;
70967;SDS011;58629;48.808;8.820;2022-08-01T07:24:27;1.90;;;1.70;;
70967;SDS011;58629;48.808;8.820;2022-08-01T07:26:54;2.23;;;1.50;;
70967;SDS011;58629;48.808;8.820;2022-08-01T07:29:23;1.55;;;1.45;;
70967;SDS011;58629;48.808;8.820;2022-08-01T07:31:49;1.73;;;1.50;;
70967;SDS011;58629;48.808;8.820;2022-08-01T07:34:16;2.15;;;1.80;;
70967;SDS011;58629;48.808;8.820;2022-08-01T07:36:41;2.13;;;1.70;;
70967;SDS011;58629;48.808;8.820;2022-08-01T07:39:06;2.00;;;1.70;;
70967;SDS011;58629;48.808;8.820;2022-08-01T07:41:32;2.23;;;1.90;;
70967;SDS011;58629;48.808;8.820;2022-08-01T07:43:58;1.70;;;1.60;;
70967;SDS011;58629;48.808;8.820;2022-08-01T07:46:23;2.13;;;1.90;;
70967;SDS011;58629;48.808;8.820;2022-08-01T07:48:48;2.00;;;1.80;;
70967;SDS011;58629;48.808;8.820;2022-08-01T07:51:14;2.07;;;1.60;;
70967;SDS011;58629;48.808;8.820;2022-08-01T07:53:39;3.20;;;1.70;;
70967;SDS011;58629;48.808;8.820;2022-08-01T07:56:04;1.80;;;1.70;;
70967;SDS011;58629;48.808;8.820;2022-08-01T07:58:31;3.47;;;1.70;;
70967;SDS011;58629;48.808;8.820;2022-08-01T08:00:56;2.13;;;1.92;;
70967;SDS011;58629;48.808;8.820;2022-08-01T08:03:22;3.40;;;2.03;;
70967;SDS011;58629;48.808;8.820;2022-08-01T08:05:47;2.77;;;2.27;;
70967;SDS011;58629;48.808;8.820;2022-08-01T08:08:12;2.93;;;2.20;;
70967;SDS011;58629;48.808;8.820;2022-08-01T08:10:39;4.63;;;2.40;;
70967;SDS011;58629;48.808;8.820;2022-08-01T08:13:04;2.40;;;2.10;;
70967;SDS011;58629;48.808;8.820;2022-08-01T08:15:30;2.50;;;2.30;;
70967;SDS011;58629;48.808;8.820;2022-08-01T08:17:55;2.93;;;2.40;;
70967;SDS011;58629;48.808;8.820;2022-08-01T08:20:20;2.40;;;2.20;;
70967;SDS011;58629;48.808;8.820;2022-08-01T08:22:54;2.60;;;2.40;;
70967;SDS011;58629;48.808;8.820;2022-08-01T08:25:19;2.70;;;2.40;;
70967;SDS011;58629;48.808;8.820;2022-08-01T08:27:46;2.47;;;2.20;;
70967;SDS011;58629;48.808;8.820;2022-08-01T08:30:12;3.37;;;2.20;;
70967;SDS011;58629;48.808;8.820;2022-08-01T08:32:38;2.17;;;1.97;;
70967;SDS011;58629;48.808;8.820;2022-08-01T08:35:04;2.88;;;2.42;;
70967;SDS011;58629;48.808;8.820;2022-08-01T08:37:31;3.17;;;2.80;;
70967;SDS011;58629;48.808;8.820;2022-08-01T08:39:57;3.63;;;2.72;;
70967;SDS011;58629;48.808;8.820;2022-08-01T08:42:22;4.90;;;2.90;;
70967;SDS011;58629;48.808;8.820;2022-08-01T08:44:48;3.63;;;2.93;;
70967;SDS011;58629;48.808;8.820;2022-08-01T08:47:13;3.03;;;2.70;;
70967;SDS011;58629;48.808;8.820;2022-08-01T08:49:42;3.45;;;2.72;;
70967;SDS011;58629;48.808;8.820;2022-08-01T08:52:08;3.67;;;3.30;;
70967;SDS011;58629;48.808;8.820;2022-08-01T08:54:35;4.93;;;3.67;;
70967;SDS011;58629;48.808;8.820;2022-08-01T08:57:02;3.60;;;3.30;;
70967;SDS011;58629;48.808;8.820;2022-08-01T08:59:29;3.70;;;2.85;;
70967;SDS011;58629;48.808;8.820;2022-08-01T09:01:55;2.93;;;2.70;;
70967;SDS011;58629;48.808;8.820;2022-08-01T09:04:21;3.30;;;3.00;;
70967;SDS011;58629;48.808;8.820;2022-08-01T09:06:50;3.00;;;2.75;;
70967;SDS011;58629;48.808;8.820;2022-08-01T09:09:17;4.85;;;3.78;;
70967;SDS011;58629;48.808;8.820;2022-08-01T09:11:46;5.45;;;3.75;;
70967;SDS011;58629;48.808;8.820;2022-08-01T09:16:42;4.45;;;3.97;;
70967;SDS011;58629;48.808;8.820;2022-08-01T09:19:13;5.45;;;4.78;;
70967;SDS011;58629;48.808;8.820;2022-08-01T09:21:40;5.13;;;4.63;;
70967;SDS011;58629;48.808;8.820;2022-08-01T09:24:21;5.43;;;4.93;;
70967;SDS011;58629;48.808;8.820;2022-08-01T09:26:46;5.30;;;4.15;;
70967;SDS011;58629;48.808;8.820;2022-08-01T09:29:20;5.63;;;4.07;;
70967;SDS011;58629;48.808;8.820;2022-08-01T09:31:50;4.45;;;4.05;;
70967;SDS011;58629;48.808;8.820;2022-08-01T09:34:23;4.50;;;4.10;;
70967;SDS011;58629;48.808;8.820;2022-08-01T09:36:53;3.90;;;3.60;;
70967;SDS011;58629;48.808;8.820;2022-08-01T09:39:30;4.88;;;3.50;;
70967;SDS011;58629;48.808;8.820;2022-08-01T09:41:57;4.43;;;3.70;;
70967;SDS011;58629;48.808;8.820;2022-08-01T09:44:37;4.32;;;3.70;;
70967;SDS011;58629;48.808;8.820;2022-08-01T09:47:05;4.10;;;3.67;;
70967;SDS011;58629;48.808;8.820;2022-08-01T09:49:31;3.97;;;3.40;;
70967;SDS011;58629;48.808;8.820;2022-08-01T09:52:14;4.30;;;3.30;;
70967;SDS011;58629;48.808;8.820;2022-08-01T09:54:42;4.35;;;3.50;;
70967;SDS011;58629;48.808;8.820;2022-08-01T09:59:42;3.33;;;3.00;;
70967;SDS011;58629;48.808;8.820;2022-08-01T10:02:10;3.13;;;2.70;;
70967;SDS011;58629;48.808;8.820;2022-08-01T10:04:47;2.92;;;2.63;;
70967;SDS011;58629;48.808;8.820;2022-08-01T10:07:13;4.72;;;2.60;;
70967;SDS011;58629;48.808;8.820;2022-08-01T10:09:41;2.97;;;2.70;;
70967;SDS011;58629;48.808;8.820;2022-08-01T10:12:07;3.77;;;3.30;;
70967;SDS011;58629;48.808;8.820;2022-08-01T10:14:33;2.97;;;2.70;;
70967;SDS011;58629;48.808;8.820;2022-08-01T10:17:00;2.60;;;2.40;;
70967;SDS011;58629;48.808;8.820;2022-08-01T10:19:27;2.63;;;2.40;;
70967;SDS011;58629;48.808;8.820;2022-08-01T10:21:54;3.63;;;2.50;;
70967;SDS011;58629;48.808;8.820;2022-08-01T10:24:21;3.37;;;2.70;;
70967;SDS011;58629;48.808;8.820;2022-08-01T10:26:47;3.00;;;2.70;;
70967;SDS011;58629;48.808;8.820;2022-08-01T10:29:14;2.90;;;2.55;;
70967;SDS011;58629;48.808;8.820;2022-08-01T10:31:43;3.38;;;2.63;;
70967;SDS011;58629;48.808;8.820;2022-08-01T10:34:09;3.40;;;2.67;;
70967;SDS011;58629;48.808;8.820;2022-08-01T10:36:36;3.38;;;2.60;;
70967;SDS011;58629;48.808;8.820;2022-08-01T10:39:04;2.70;;;2.50;;
70967;SDS011;58629;48.808;8.820;2022-08-01T10:41:32;2.92;;;2.50;;
70967;SDS011;58629;48.808;8.820;2022-08-01T10:43:59;2.83;;;2.45;;
70967;SDS011;58629;48.808;8.820;2022-08-01T10:46:26;3.03;;;2.40;;
70967;SDS011;58629;48.808;8.820;2022-08-01T10:48:55;2.40;;;2.20;;
70967;SDS011;58629;48.808;8.820;2022-08-01T10:51:25;2.90;;;2.17;;
70967;SDS011;58629;48.808;8.820;2022-08-01T10:53:53;2.63;;;2.42;;
70967;SDS011;58629;48.808;8.820;2022-08-01T10:56:19;2.60;;;2.40;;
70967;SDS011;58629;48.808;8.820;2022-08-01T10:58:46;2.50;;;2.10;;
70967;SDS011;58629;48.808;8.820;2022-08-01T11:08:58;2.77;;;2.40;;
70967;SDS011;58629;48.808;8.820;2022-08-01T11:11:28;2.65;;;2.22;;
70967;SDS011;58629;48.808;8.820;2022-08-01T11:16:30;2.38;;;2.17;;
70967;SDS011;58629;48.808;8.820;2022-08-01T11:18:56;2.83;;;2.40;;
70967;SDS011;58629;48.808;8.820;2022-08-01T11:21:22;2.37;;;2.17;;
70967;SDS011;58629;48.808;8.820;2022-08-01T11:29:43;2.35;;;2.10;;
70967;SDS011;58629;48.808;8.820;2022-08-01T11:32:25;2.40;;;2.20;;
70967;SDS011;58629;48.808;8.820;2022-08-01T11:34:52;2.40;;;2.20;;
70967;SDS011;58629;48.808;8.820;2022-08-01T11:37:29;3.30;;;2.40;;
70967;SDS011;58629;48.808;8.820;2022-08-01T11:42:39;2.47;;;2.28;;
70967;SDS011;58629;48.808;8.820;2022-08-01T11:45:05;2.40;;;2.17;;
70967;SDS011;58629;48.808;8.820;2022-08-01T11:47:52;2.58;;;2.20;;
70967;SDS011;58629;48.808;8.820;2022-08-01T11:50:34;2.55;;;2.30;;
70967;SDS011;58629;48.808;8.820;2022-08-01T11:53:01;2.78;;;2.30;;
70967;SDS011;58629;48.808;8.820;2022-08-01T11:55:32;3.63;;;2.25;;
70967;SDS011;58629;48.808;8.820;2022-08-01T11:58:08;2.80;;;2.40;;
70967;SDS011;58629;48.808;8.820;2022-08-01T12:00:33;3.35;;;2.45;;
70967;SDS011;58629;48.808;8.820;2022-08-01T12:03:07;2.78;;;2.47;;
70967;SDS011;58629;48.808;8.820;2022-08-01T12:05:34;2.97;;;2.40;;
70967;SDS011;58629;48.808;8.820;2022-08-01T12:08:02;4.43;;;2.30;;
70967;SDS011;58629;48.808;8.820;2022-08-01T12:10:29;3.45;;;2.13;;
70967;SDS011;58629;48.808;8.820;2022-08-01T12:13:01;2.40;;;2.20;;
70967;SDS011;58629;48.808;8.820;2022-08-01T12:15:30;2.28;;;2.08;;
70967;SDS011;58629;48.808;8.820;2022-08-01T12:17:58;2.80;;;2.37;;
70967;SDS011;58629;48.808;8.820;2022-08-01T12:20:32;2.40;;;2.20;;
70967;SDS011;58629;48.808;8.820;2022-08-01T12:23:05;2.65;;;1.95;;
70967;SDS011;58629;48.808;8.820;2022-08-01T12:25:32;3.17;;;2.30;;
70967;SDS011;58629;48.808;8.820;2022-08-01T12:28:02;4.50;;;2.30;;
70967;SDS011;58629;48.808;8.820;2022-08-01T12:30:29;2.83;;;2.20;;
70967;SDS011;58629;48.808;8.820;2022-08-01T12:33:04;4.05;;;2.30;;
70967;SDS011;58629;48.808;8.820;2022-08-01T12:35:32;3.90;;;2.40;;
70967;SDS011;58629;48.808;8.820;2022-08-01T12:38:05;4.47;;;2.00;;
70967;SDS011;58629;48.808;8.820;2022-08-01T12:40:40;2.53;;;2.20;;
70967;SDS011;58629;48.808;8.820;2022-08-01T12:43:08;2.30;;;2.10;;
70967;SDS011;58629;48.808;8.820;2022-08-01T12:45:41;2.40;;;2.20;;
70967;SDS011;58629;48.808;8.820;2022-08-01T12:48:10;2.30;;;2.10;;
70967;SDS011;58629;48.808;8.820;2022-08-01T12:50:36;3.78;;;2.40;;
70967;SDS011;58629;48.808;8.820;2022-08-01T12:53:03;2.38;;;2.00;;
70967;SDS011;58629;48.808;8.820;2022-08-01T12:55:30;2.50;;;2.30;;
70967;SDS011;58629;48.808;8.820;2022-08-01T12:58:04;3.17;;;2.47;;
70967;SDS011;58629;48.808;8.820;2022-08-01T13:00:31;4.22;;;2.60;;
70967;SDS011;58629;48.808;8.820;2022-08-01T13:03:08;2.92;;;2.20;;
70967;SDS011;58629;48.808;8.820;2022-08-01T13:08:16;2.30;;;2.10;;
70967;SDS011;58629;48.808;8.820;2022-08-01T13:10:45;3.45;;;2.40;;
70967;SDS011;58629;48.808;8.820;2022-08-01T13:13:12;2.85;;;2.20;;
70967;SDS011;58629;48.808;8.820;2022-08-01T13:15:40;2.88;;;2.22;;
70967;SDS011;58629;48.808;8.820;2022-08-01T13:18:28;3.97;;;2.20;;
70967;SDS011;58629;48.808;8.820;2022-08-01T13:21:14;2.80;;;2.50;;
70967;SDS011;58629;48.808;8.820;2022-08-01T13:23:41;2.78;;;2.10;;
70967;SDS011;58629;48.808;8.820;2022-08-01T13:29:31;3.17;;;2.20;;
70967;SDS011;58629;48.808;8.820;2022-08-01T13:31:59;2.50;;;2.30;;
70967;SDS011;58629;48.808;8.820;2022-08-01T13:34:44;3.23;;;2.40;;
70967;SDS011;58629;48.808;8.820;2022-08-01T13:37:10;2.58;;;2.30;;
70967;SDS011;58629;48.808;8.820;2022-08-01T13:39:35;2.70;;;2.50;;
70967;SDS011;58629;48.808;8.820;2022-08-01T13:42:11;2.58;;;2.38;;
70967;SDS011;58629;48.808;8.820;2022-08-01T13:44:39;2.90;;;2.40;;
70967;SDS011;58629;48.808;8.820;2022-08-01T13:47:04;3.15;;;2.22;;
70967;SDS011;58629;48.808;8.820;2022-08-01T13:49:30;2.45;;;2.25;;
70967;SDS011;58629;48.808;8.820;2022-08-01T13:51:56;3.20;;;2.47;;
70967;SDS011;58629;48.808;8.820;2022-08-01T13:54:22;2.43;;;2.20;;
70967;SDS011;58629;48.808;8.820;2022-08-01T13:56:48;2.30;;;2.10;;
70967;SDS011;58629;48.808;8.820;2022-08-01T13:59:14;3.80;;;2.17;;
70967;SDS011;58629;48.808;8.820;2022-08-01T14:01:39;2.63;;;2.20;;
70967;SDS011;58629;48.808;8.820;2022-08-01T14:04:05;2.30;;;2.10;;
70967;SDS011;58629;48.808;8.820;2022-08-01T14:06:30;2.20;;;2.00;;
70967;SDS011;58629;48.808;8.820;2022-08-01T14:08:57;2.50;;;2.10;;
70967;SDS011;58629;48.808;8.820;2022-08-01T14:11:22;2.57;;;2.20;;
70967;SDS011;58629;48.808;8.820;2022-08-01T14:13:48;3.08;;;2.30;;
70967;SDS011;58629;48.808;8.820;2022-08-01T14:16:13;2.50;;;2.30;;
70967;SDS011;58629;48.808;8.820;2022-08-01T14:18:39;2.53;;;2.33;;
70967;SDS011;58629;48.808;8.820;2022-08-01T14:21:05;2.50;;;2.30;;
70967;SDS011;58629;48.808;8.820;2022-08-01T14:23:31;3.17;;;2.45;;
70967;SDS011;58629;48.808;8.820;2022-08-01T14:25:56;2.60;;;2.17;;
70967;SDS011;58629;48.808;8.820;2022-08-01T14:28:21;7.13;;;2.40;;
70967;SDS011;58629;48.808;8.820;2022-08-01T14:30:46;2.13;;;1.97;;
70967;SDS011;58629;48.808;8.820;2022-08-01T14:33:12;3.13;;;2.37;;
70967;SDS011;58629;48.808;8.820;2022-08-01T14:35:41;3.25;;;2.30;;
70967;SDS011;58629;48.808;8.820;2022-08-01T14:38:06;2.65;;;2.20;;
70967;SDS011;58629;48.808;8.820;2022-08-01T14:40:33;2.33;;;2.13;;
70967;SDS011;58629;48.808;8.820;2022-08-01T14:42:59;2.25;;;2.00;;
70967;SDS011;58629;48.808;8.820;2022-08-01T14:45:26;2.30;;;2.10;;
70967;SDS011;58629;48.808;8.820;2022-08-01T14:47:52;2.30;;;2.10;;
70967;SDS011;58629;48.808;8.820;2022-08-01T14:50:17;2.63;;;2.10;;
70967;SDS011;58629;48.808;8.820;2022-08-01T14:52:43;2.17;;;1.97;;
70967;SDS011;58629;48.808;8.820;2022-08-01T14:55:09;2.27;;;1.90;;
70967;SDS011;58629;48.808;8.820;2022-08-01T14:57:36;2.47;;;2.17;;
70967;SDS011;58629;48.808;8.820;2022-08-01T15:00:03;4.13;;;2.00;;
70967;SDS011;58629;48.808;8.820;2022-08-01T15:02:30;1.92;;;1.80;;
70967;SDS011;58629;48.808;8.820;2022-08-01T15:04:56;3.07;;;1.90;;
70967;SDS011;58629;48.808;8.820;2022-08-01T15:07:21;1.90;;;1.70;;
70967;SDS011;58629;48.808;8.820;2022-08-01T15:09:46;2.00;;;1.90;;
70967;SDS011;58629;48.808;8.820;2022-08-01T15:12:12;2.90;;;2.03;;
70967;SDS011;58629;48.808;8.820;2022-08-01T15:14:37;1.90;;;1.80;;
70967;SDS011;58629;48.808;8.820;2022-08-01T15:17:19;2.08;;;1.77;;
70967;SDS011;58629;48.808;8.820;2022-08-01T15:19:46;2.22;;;1.73;;
70967;SDS011;58629;48.808;8.820;2022-08-01T15:22:13;3.40;;;1.60;;
70967;SDS011;58629;48.808;8.820;2022-08-01T15:24:38;2.15;;;1.90;;
70967;SDS011;58629;48.808;8.820;2022-08-01T15:27:04;2.23;;;1.80;;
70967;SDS011;58629;48.808;8.820;2022-08-01T15:29:30;2.30;;;1.80;;
70967;SDS011;58629;48.808;8.820;2022-08-01T15:31:56;2.72;;;1.70;;